Time;durP1;ratioP1;P1;durP2;ratioP2;P2;SDS_P1;SDS_P2;PMS_P1;PMS_P2;Temp;Humidity;BMP_temperature;BMP_pressure;BME280_temperature;BME280_humidity;BME280_pressure;Samples;Min_cycle;Max_cycle;Signal;HPM_P1;HPM_P2
2022/02/13 00:01:09;;;;;;;13.60;8.90;;;0.00;68.20;;;-1.45;53.67;95722.59;6105929;23;20321;-82
2022/02/13 00:03:37;;;;;;;15.30;7.97;;;0.00;68.20;;;-1.40;53.41;95730.84;6131274;23;20224;-82
2022/02/13 00:06:04;;;;;;;10.52;7.43;;;0.00;69.30;;;-1.42;53.75;95732.69;6105705;23;20201;-82
2022/02/13 00:08:32;;;;;;;12.88;8.55;;;0.00;68.40;;;-1.45;53.59;95730.31;6107094;23;20239;-81
2022/02/13 00:11:12;;;;;;;12.27;7.60;;;0.00;68.40;;;-1.51;53.54;95728.94;6130687;23;20184;-82
2022/02/13 00:13:39;;;;;;;16.92;8.75;;;-0.10;68.40;;;-1.52;53.52;95729.88;6082343;23;20221;-82
2022/02/13 00:16:07;;;;;;;13.63;8.63;;;-0.10;68.30;;;-1.54;53.38;95731.69;6129884;23;20193;-82
2022/02/13 00:18:34;;;;;;;13.88;8.95;;;-0.10;68.30;;;-1.55;53.50;95731.81;6130797;23;20212;-82
2022/02/13 00:21:01;;;;;;;11.60;8.48;;;-0.10;69.30;;;-1.58;53.94;95727.69;6106052;23;20212;-82
2022/02/13 00:23:28;;;;;;;14.05;8.88;;;-0.20;68.40;;;-1.62;53.68;95718.53;6129872;23;20205;-82
2022/02/13 00:25:55;;;;;;;11.73;8.45;;;-0.20;68.50;;;-1.63;53.65;95712.53;6105014;23;20197;-82
2022/02/13 00:28:22;;;;;;;12.90;8.30;;;-0.20;68.50;;;-1.68;53.58;95716.34;6106381;23;20199;-82
2022/02/13 00:30:49;;;;;;;12.05;8.48;;;-0.20;68.60;;;-1.67;53.91;95716.22;6105852;23;20205;-81
2022/02/13 00:33:17;;;;;;;12.30;8.10;;;-0.20;68.70;;;-1.69;54.11;95701.81;6130633;23;20535;-81
2022/02/13 00:35:46;;;;;;;16.40;9.00;;;-0.30;68.60;;;-1.71;53.65;95707.06;6106429;23;20248;-81
2022/02/13 00:38:14;;;;;;;21.30;10.90;;;-0.30;68.60;;;-1.71;54.12;95708.78;6106258;23;20178;-82
2022/02/13 00:40:41;;;;;;;15.98;9.20;;;-0.30;68.60;;;-1.75;53.98;95697.88;6082498;23;20232;-81
2022/02/13 00:43:09;;;;;;;15.27;8.88;;;-0.30;68.60;;;-1.78;53.84;95693.75;6105197;23;20196;-81
2022/02/13 00:45:36;;;;;;;15.75;8.93;;;-0.40;68.60;;;-1.81;53.39;95687.97;6105840;23;20200;-82
2022/02/13 00:48:04;;;;;;;16.60;9.27;;;-0.40;68.60;;;-1.86;54.09;95682.31;6106152;23;20269;-82
2022/02/13 00:50:31;;;;;;;12.73;8.02;;;-0.40;68.50;;;-1.87;53.97;95683.22;6130397;23;20197;-81
2022/02/13 00:52:58;;;;;;;12.30;8.68;;;-0.40;68.60;;;-1.91;53.97;95677.44;6130733;23;20174;-82
2022/02/13 00:55:26;;;;;;;15.05;8.25;;;-0.40;68.60;;;-1.89;54.34;95683.31;6130328;23;20198;-82
2022/02/13 00:57:53;;;;;;;14.77;8.60;;;-0.50;68.50;;;-1.92;54.07;95685.25;6129132;23;20631;-81
2022/02/13 01:00:21;;;;;;;13.52;8.40;;;-0.50;68.50;;;-1.92;54.43;95686.06;6106293;23;20209;-82
2022/02/13 01:02:49;;;;;;;13.02;7.65;;;-0.50;68.50;;;-1.94;54.06;95685.38;6081210;23;20363;-82
2022/02/13 01:05:17;;;;;;;12.88;8.38;;;-0.50;68.50;;;-1.96;53.79;95688.00;6106217;23;20652;-81
2022/02/13 01:07:45;;;;;;;12.48;8.23;;;-0.50;68.50;;;-1.98;53.50;95681.31;6106040;23;20177;-82
2022/02/13 01:10:12;;;;;;;14.30;8.77;;;-0.50;68.50;;;-2.00;54.04;95678.84;6130261;23;20200;-82
2022/02/13 01:12:40;;;;;;;12.27;8.18;;;-0.60;68.40;;;-2.01;54.14;95686.66;6130708;23;20248;-82
2022/02/13 01:15:08;;;;;;;14.43;8.68;;;-0.60;68.40;;;-2.05;54.23;95664.63;6154716;23;20204;-83
2022/02/13 01:17:35;;;;;;;14.93;9.30;;;-0.60;68.40;;;-2.03;54.23;95675.66;6105932;23;20537;-81
2022/02/13 01:20:04;;;;;;;13.63;9.05;;;-0.60;68.50;;;-2.06;54.18;95661.25;6129335;23;20201;-81
2022/02/13 01:22:31;;;;;;;13.48;8.85;;;-0.60;68.50;;;-2.08;53.95;95668.22;6129919;23;20216;-82
2022/02/13 01:24:58;;;;;;;13.07;8.50;;;-0.70;68.40;;;-2.08;54.17;95664.84;6130068;23;20201;-82
2022/02/13 01:27:25;;;;;;;12.80;8.68;;;-0.70;68.40;;;-2.13;54.25;95657.41;6130390;23;20252;-82
2022/02/13 01:29:52;;;;;;;14.43;8.95;;;-0.70;68.40;;;-2.08;53.88;95675.13;6130170;23;20565;-82
2022/02/13 01:32:19;;;;;;;14.55;8.95;;;-0.70;68.40;;;-2.12;54.35;95667.59;6105657;23;20564;-81
2022/02/13 01:34:46;;;;;;;19.08;10.70;;;-0.70;68.40;;;-2.17;54.25;95661.06;6106230;23;20719;-82
2022/02/13 01:37:14;;;;;;;37.03;18.08;;;-0.70;68.60;;;-2.17;54.36;95653.34;6081742;23;20244;-82
2022/02/13 01:39:41;;;;;;;37.10;17.70;;;-0.70;68.60;;;-2.16;54.23;95658.41;6104577;23;20211;-81
2022/02/13 01:42:10;;;;;;;26.95;14.40;;;-0.70;68.70;;;-2.20;54.26;95649.22;6105722;23;20264;-82
2022/02/13 01:44:37;;;;;;;22.58;12.90;;;-0.70;68.60;;;-2.20;54.25;95645.84;6105726;23;20198;-82
2022/02/13 01:47:06;;;;;;;19.10;12.25;;;-0.80;68.60;;;-2.24;54.28;95641.84;6106331;23;20264;-82
2022/02/13 01:49:35;;;;;;;16.42;9.27;;;-0.80;68.60;;;-2.23;54.31;95641.72;6105584;23;20288;-82
2022/02/13 01:52:04;;;;;;;17.83;10.10;;;-0.80;68.60;;;-2.24;54.28;95641.84;6105091;23;20228;-82
2022/02/13 01:54:31;;;;;;;16.17;9.20;;;-0.80;68.80;;;-2.27;54.34;95641.09;6080929;23;20194;-82
2022/02/13 01:56:59;;;;;;;13.98;8.85;;;-0.80;68.70;;;-2.31;54.54;95637.03;6129805;23;20216;-82
2022/02/13 01:59:26;;;;;;;13.52;8.75;;;-0.90;68.60;;;-2.29;54.42;95644.69;6129253;23;20200;-81
2022/02/13 02:01:54;;;;;;;15.70;8.95;;;-0.90;68.70;;;-2.32;54.12;95642.28;6105560;23;20212;-82
2022/02/13 02:04:22;;;;;;;21.17;11.25;;;-0.90;68.80;;;-2.34;54.55;95637.25;6105763;23;20193;-82
2022/02/13 02:06:49;;;;;;;19.38;12.20;;;-0.90;68.90;;;-2.34;54.68;95637.25;6129547;23;20184;-82
2022/02/13 02:09:16;;;;;;;16.55;10.05;;;-0.90;68.90;;;-2.31;54.63;95636.22;6129446;23;20197;-82
2022/02/13 02:11:43;;;;;;;16.42;9.90;;;-0.90;69.00;;;-2.32;54.65;95629.44;6105934;23;20212;-82
2022/02/13 02:14:10;;;;;;;13.18;9.45;;;-0.90;69.10;;;-2.31;55.00;95629.34;6129552;23;20644;-81
2022/02/13 02:16:37;;;;;;;14.95;9.27;;;-0.90;69.20;;;-2.31;54.70;95625.97;6127715;23;20268;-83
2022/02/13 02:19:09;;;;;;;14.25;8.82;;;-0.90;69.20;;;-2.31;54.88;95626.78;6154144;23;20232;-82
2022/02/13 02:21:45;;;;;;;13.25;8.20;;;-0.90;69.40;;;-2.31;54.73;95625.97;6105387;23;20197;-82
2022/02/13 02:24:16;;;;;;;11.60;7.80;;;-0.90;69.80;;;-2.32;54.98;95612.31;6081505;23;20660;-83
2022/02/13 02:26:44;;;;;;;12.93;8.70;;;-0.90;69.40;;;-2.32;54.62;95616.59;6104194;23;20173;-83
2022/02/13 02:29:11;;;;;;;13.80;8.77;;;-0.90;69.40;;;-2.33;55.01;95612.38;6104872;23;20227;-82
2022/02/13 02:31:38;;;;;;;11.63;8.02;;;-0.90;69.30;;;-2.32;55.08;95604.59;6105536;23;20536;-82
2022/02/13 02:34:06;;;;;;;12.73;8.23;;;-0.90;69.40;;;-2.35;55.03;95596.25;6128943;23;20182;-82
2022/02/13 02:36:33;;;;;;;12.45;7.47;;;-0.90;69.40;;;-2.27;55.10;95601.72;6105718;23;20232;-82
2022/02/13 02:39:01;;;;;;;11.35;7.40;;;-0.90;69.50;;;-2.27;54.99;95610.25;6104729;23;20260;-82
2022/02/13 02:41:30;;;;;;;40.85;20.83;;;-0.90;69.50;;;-2.27;54.69;95606.84;6105037;23;20208;-83
2022/02/13 02:44:01;;;;;;;20.73;12.00;;;-0.90;69.60;;;-2.32;54.94;95599.44;6104466;23;20287;-83
2022/02/13 02:46:28;;;;;;;18.05;10.38;;;-0.90;69.70;;;-2.30;55.01;95599.34;6081508;23;20184;-82
2022/02/13 02:48:56;;;;;;;16.67;9.77;;;-0.90;69.50;;;-2.28;54.97;95600.91;6130224;23;20216;-83
2022/02/13 02:51:23;;;;;;;61.13;27.63;;;-0.90;69.60;;;-2.28;55.18;95597.53;6129580;23;20208;-82
2022/02/13 02:53:52;;;;;;;47.80;22.65;;;-0.90;69.60;;;-2.29;55.04;95596.69;6103736;23;20177;-83
2022/02/13 02:56:19;;;;;;;45.60;21.20;;;-0.90;69.60;;;-2.30;55.11;95592.44;6081673;23;20177;-83
2022/02/13 02:58:46;;;;;;;38.38;18.10;;;-0.90;69.60;;;-2.28;55.14;95595.75;6129329;23;20205;-83
2022/02/13 03:01:14;;;;;;;30.83;15.15;;;-0.90;69.70;;;-2.30;55.38;95586.50;6104465;23;20197;-82
2022/02/13 03:03:41;;;;;;;22.85;12.50;;;-0.90;69.70;;;-2.32;55.12;95586.59;6104650;23;20494;-82
2022/02/13 03:06:08;;;;;;;96.55;40.45;;;-0.90;69.70;;;-2.31;55.04;95588.22;6104850;23;20204;-82
2022/02/13 03:08:35;;;;;;;43.00;19.95;;;-0.90;69.70;;;-2.36;55.41;95571.47;6083606;23;20212;-83
2022/02/13 03:11:02;;;;;;;28.13;14.82;;;-0.90;69.70;;;-2.30;55.17;95581.38;6107560;23;20251;-82
2022/02/13 03:13:30;;;;;;;25.30;14.32;;;-0.90;69.70;;;-2.31;55.15;95588.22;6130752;23;20208;-83
2022/02/13 03:15:59;;;;;;;24.15;12.68;;;-0.90;69.70;;;-2.41;55.26;95572.56;6156451;23;20528;-83
2022/02/13 03:18:29;;;;;;;20.52;10.88;;;-1.00;69.50;;;-2.41;54.80;95577.69;6107692;23;20180;-83
2022/02/13 03:20:58;;;;;;;24.40;12.98;;;-1.00;69.50;;;-2.38;55.12;95584.44;6107483;23;20193;-83
2022/02/13 03:23:25;;;;;;;29.95;14.57;;;-1.00;69.50;;;-2.38;55.31;95587.00;6106763;23;20389;-83
2022/02/13 03:25:53;;;;;;;27.13;14.30;;;-1.00;69.60;;;-2.39;55.25;95581.94;6106793;23;20208;-83
2022/02/13 03:28:20;;;;;;;126.38;54.50;;;-1.00;69.60;;;-2.41;55.31;95584.59;6155867;23;20200;-82
2022/02/13 03:30:47;;;;;;;67.68;33.75;;;-1.00;69.60;;;-2.41;55.32;95587.97;6155396;23;20220;-83
2022/02/13 03:33:14;;;;;;;48.97;23.75;;;-1.00;69.70;;;-2.42;55.25;95583.78;6106812;23;20201;-83
2022/02/13 03:35:42;;;;;;;38.33;19.05;;;-1.10;69.60;;;-2.43;55.25;95579.56;6131101;23;20249;-82
2022/02/13 03:38:09;;;;;;;29.35;15.63;;;-1.10;69.70;;;-2.43;54.84;95586.44;6131049;23;20185;-83
2022/02/13 03:40:37;;;;;;;25.10;13.45;;;-1.10;69.70;;;-2.46;55.13;95586.63;6107255;23;20640;-83
2022/02/13 03:43:06;;;;;;;18.90;10.88;;;-1.10;69.70;;;-2.48;55.23;95579.03;6083468;23;20200;-82
2022/02/13 03:45:34;;;;;;;27.23;12.30;;;-1.10;69.70;;;-2.49;55.36;95584.25;6107091;23;20197;-83
2022/02/13 03:48:02;;;;;;;42.63;17.60;;;-1.10;69.70;;;-2.54;55.28;95574.25;6106660;23;20514;-83
2022/02/13 03:50:30;;;;;;;35.78;15.45;;;-1.10;69.70;;;-2.54;55.10;95576.00;6082053;23;20275;-82
2022/02/13 03:52:58;;;;;;;24.90;11.93;;;-1.10;69.60;;;-2.54;55.20;95584.53;6106496;23;20261;-83
2022/02/13 03:55:26;;;;;;;21.48;10.80;;;-1.20;69.60;;;-2.59;55.28;95582.25;6106938;23;20208;-83
2022/02/13 03:57:53;;;;;;;17.80;9.10;;;-1.20;69.70;;;-2.55;55.65;95582.06;6106671;23;20181;-83
2022/02/13 04:00:20;;;;;;;14.35;8.10;;;-1.20;69.80;;;-2.55;55.52;95576.91;6106133;23;20201;-81
2022/02/13 04:02:47;;;;;;;13.85;8.25;;;-1.20;69.70;;;-2.56;55.41;95570.97;6155174;23;20232;-83
2022/02/13 04:05:15;;;;;;;12.75;7.47;;;-1.20;69.80;;;-2.57;55.34;95574.44;6106369;23;20197;-83
2022/02/13 04:07:43;;;;;;;13.30;7.65;;;-1.20;69.80;;;-2.63;55.39;95565.38;6106771;23;20189;-83
2022/02/13 04:10:12;;;;;;;13.95;7.82;;;-1.20;69.70;;;-2.62;55.36;95572.16;6106371;23;20201;-82
2022/02/13 04:12:41;;;;;;;13.05;8.23;;;-1.20;69.70;;;-2.65;55.26;95569.81;6083226;23;20236;-83
2022/02/13 04:15:10;;;;;;;13.20;8.60;;;-1.20;69.70;;;-2.68;55.23;95569.16;6107125;23;20190;-83
2022/02/13 04:17:37;;;;;;;15.82;9.32;;;-1.30;69.70;;;-2.65;55.18;95571.53;6106656;23;20173;-83
2022/02/13 04:20:05;;;;;;;13.00;7.80;;;-1.30;69.80;;;-2.67;55.51;95571.63;6105898;23;20212;-82
2022/02/13 04:22:33;;;;;;;45.30;21.90;;;-1.30;69.80;;;-2.67;55.96;95569.06;6106672;23;20177;-83
2022/02/13 04:25:00;;;;;;;43.50;20.20;;;-1.30;69.70;;;-2.66;55.48;95572.44;6131177;23;20656;-83
2022/02/13 04:27:27;;;;;;;24.63;12.60;;;-1.30;69.80;;;-2.65;55.49;95568.97;6105656;23;20256;-83
2022/02/13 04:29:54;;;;;;;16.90;9.50;;;-1.30;69.90;;;-2.69;55.84;95570.06;6107286;23;20197;-82
2022/02/13 04:32:21;;;;;;;14.93;9.43;;;-1.30;69.90;;;-2.66;55.54;95567.31;6106716;23;20204;-83
2022/02/13 04:34:48;;;;;;;14.55;8.68;;;-1.30;70.00;;;-2.72;55.65;95554.84;6130758;23;20239;-83
2022/02/13 04:37:15;;;;;;;14.23;8.25;;;-1.30;70.10;;;-2.64;55.66;95568.84;6106604;23;20177;-82
2022/02/13 04:39:43;;;;;;;13.05;7.90;;;-1.30;70.10;;;-2.64;55.59;95561.16;6082863;23;20205;-83
2022/02/13 04:42:13;;;;;;;12.32;8.88;;;-1.30;70.10;;;-2.64;55.80;95558.59;6130333;23;20209;-82
2022/02/13 04:44:42;;;;;;;13.13;8.88;;;-1.30;70.40;;;-2.60;56.38;95565.19;6082328;23;20193;-83
2022/02/13 04:47:09;;;;;;;11.38;8.05;;;-1.30;70.40;;;-2.55;55.85;95557.22;6129305;23;20177;-83
2022/02/13 04:49:36;;;;;;;12.38;7.90;;;-1.30;70.30;;;-2.53;56.01;95559.69;6106673;23;20227;-83
2022/02/13 04:52:04;;;;;;;11.77;8.10;;;-1.20;70.50;;;-2.50;55.94;95562.88;6155059;23;20172;-83
2022/02/13 04:54:31;;;;;;;11.55;7.95;;;-1.20;70.50;;;-2.48;56.22;95562.78;6131250;23;20220;-83
2022/02/13 04:57:01;;;;;;;15.05;8.30;;;-1.20;70.50;;;-2.47;55.93;95556.72;6128309;23;20201;-82
2022/02/13 04:59:34;;;;;;;13.82;8.30;;;-1.20;70.50;;;-2.46;56.01;95548.09;6130277;23;20220;-83
2022/02/13 05:02:02;;;;;;;14.52;7.57;;;-1.20;70.50;;;-2.46;56.14;95553.25;6131411;23;20185;-83
2022/02/13 05:04:31;;;;;;;14.05;8.35;;;-1.10;70.50;;;-2.49;55.76;95546.56;6130023;23;20209;-81
2022/02/13 05:06:59;;;;;;;11.93;8.20;;;-1.10;70.40;;;-2.48;55.92;95550.78;6105579;23;20178;-81
2022/02/13 05:09:27;;;;;;;10.63;7.72;;;-1.10;70.40;;;-2.52;55.87;95541.59;6105320;23;20275;-81
2022/02/13 05:11:55;;;;;;;13.93;8.05;;;-1.20;71.20;;;-2.50;56.04;95550.03;6129607;23;20228;-82
2022/02/13 05:14:23;;;;;;;12.13;8.38;;;-1.20;70.30;;;-2.51;55.99;95538.13;6105614;23;20276;-81
2022/02/13 05:16:51;;;;;;;12.63;8.00;;;-1.20;70.30;;;-2.57;55.88;95534.16;6105129;23;20185;-81
2022/02/13 05:19:18;;;;;;;12.70;8.20;;;-1.20;70.30;;;-2.54;55.72;95543.44;6129428;23;20185;-81
2022/02/13 05:21:45;;;;;;;12.95;8.45;;;-1.20;70.30;;;-2.54;56.06;95551.13;6105687;23;20201;-82
2022/02/13 05:24:12;;;;;;;11.10;7.68;;;-1.20;70.30;;;-2.55;56.01;95553.81;6105915;23;20724;-82
2022/02/13 05:26:39;;;;;;;13.32;7.57;;;-1.20;70.30;;;-2.57;56.12;95562.41;6105913;23;20178;-82
2022/02/13 05:29:06;;;;;;;12.30;7.88;;;-1.20;70.30;;;-2.62;56.19;95551.63;6129477;23;20212;-81
2022/02/13 05:31:33;;;;;;;12.70;7.88;;;-1.20;70.30;;;-2.60;55.88;95554.94;6105354;23;20185;-81
2022/02/13 05:34:06;;;;;;;11.93;8.63;;;-1.20;70.30;;;-2.62;55.80;95553.38;6128280;23;20639;-81
2022/02/13 05:36:34;;;;;;;11.63;8.27;;;-1.20;70.30;;;-2.68;55.89;95554.56;6152421;23;20170;-83
2022/02/13 05:39:01;;;;;;;10.63;7.82;;;-1.30;70.20;;;-2.66;55.95;95555.31;6130030;23;20224;-83
2022/02/13 05:41:28;;;;;;;12.07;8.18;;;-1.30;70.20;;;-2.70;55.77;95555.59;6105738;23;20201;-83
2022/02/13 05:43:56;;;;;;;12.02;8.50;;;-1.30;70.20;;;-2.79;55.65;95550.09;6129781;23;20177;-83
2022/02/13 05:46:25;;;;;;;15.18;8.77;;;-1.30;70.10;;;-2.76;55.75;95557.63;6105433;23;20169;-83
2022/02/13 05:48:53;;;;;;;13.43;8.57;;;-1.30;70.10;;;-2.81;55.95;95557.06;6105505;23;20504;-83
2022/02/13 05:51:23;;;;;;;14.45;9.07;;;-1.40;70.10;;;-2.82;55.79;95560.56;6105936;23;20217;-84
2022/02/13 05:53:51;;;;;;;16.30;9.68;;;-1.40;70.10;;;-2.92;55.78;95551.75;6106744;23;20495;-83
2022/02/13 05:56:20;;;;;;;13.30;8.82;;;-1.40;70.10;;;-2.92;55.90;95544.91;6129792;23;20170;-82
2022/02/13 05:58:47;;;;;;;14.73;9.70;;;-1.40;70.10;;;-2.87;55.86;95562.56;6105875;23;20189;-83
2022/02/13 06:01:15;;;;;;;16.70;10.05;;;-1.50;70.10;;;-2.89;56.09;95556.72;6105569;23;20224;-83
2022/02/13 06:03:42;;;;;;;15.90;10.75;;;-1.50;70.20;;;-2.90;55.99;95562.75;6105449;23;20180;-82
2022/02/13 06:06:10;;;;;;;18.17;9.40;;;-1.50;70.20;;;-2.91;56.09;95554.22;6130171;23;20185;-83
2022/02/13 06:08:39;;;;;;;17.33;9.57;;;-1.50;70.20;;;-2.92;55.95;95552.59;6081535;23;20170;-83
2022/02/13 06:11:07;;;;;;;13.55;8.93;;;-1.50;70.30;;;-2.90;56.04;95565.34;6105488;23;20197;-82
2022/02/13 06:13:34;;;;;;;12.38;8.07;;;-1.50;70.30;;;-2.92;55.98;95556.88;6129841;23;20212;-82
2022/02/13 06:16:01;;;;;;;13.10;8.13;;;-1.50;70.30;;;-2.90;56.11;95565.34;6105574;23;20243;-83
2022/02/13 06:18:29;;;;;;;13.30;8.75;;;-1.50;70.40;;;-2.87;56.26;95561.75;6130451;23;20174;-82
2022/02/13 06:20:56;;;;;;;13.10;7.68;;;-1.50;70.60;;;-2.86;56.12;95559.09;6105114;23;20279;-82
2022/02/13 06:23:24;;;;;;;12.32;8.10;;;-1.50;70.60;;;-2.81;56.08;95567.31;6105969;23;20178;-83
2022/02/13 06:25:53;;;;;;;13.70;8.25;;;-1.50;70.60;;;-2.77;56.41;95560.25;6129927;23;20185;-82
2022/02/13 06:28:21;;;;;;;13.95;7.93;;;-1.50;70.70;;;-2.74;56.06;95563.47;6105650;23;20178;-82
2022/02/13 06:30:49;;;;;;;12.77;7.80;;;-1.50;70.70;;;-2.73;56.19;95554.03;6081562;23;20288;-83
2022/02/13 06:33:20;;;;;;;14.07;9.07;;;-1.50;71.70;;;-2.68;56.09;95546.88;6081590;23;20245;-82
2022/02/13 06:35:48;;;;;;;13.75;8.85;;;-1.40;70.90;;;-2.61;56.46;95548.13;6105194;23;20272;-82
2022/02/13 06:38:15;;;;;;;14.93;8.65;;;-1.40;71.00;;;-2.52;56.25;95553.63;6080894;23;20178;-83
2022/02/13 06:40:43;;;;;;;13.10;8.70;;;-1.40;71.00;;;-2.46;56.42;95553.25;6104514;23;20531;-83
2022/02/13 06:43:10;;;;;;;14.35;8.73;;;-1.30;71.10;;;-2.38;56.34;95550.19;6105343;23;20173;-83
2022/02/13 06:45:37;;;;;;;15.20;9.90;;;-1.30;71.00;;;-2.30;56.20;95558.25;6129799;23;20691;-81
2022/02/13 06:48:05;;;;;;;19.42;11.68;;;-1.30;71.10;;;-2.23;56.23;95556.09;6129730;23;20189;-82
2022/02/13 06:50:32;;;;;;;20.40;12.65;;;-1.20;71.30;;;-2.16;56.22;95555.63;6129488;23;20221;-82
2022/02/13 06:53:04;;;;;;;37.05;17.17;;;-1.10;71.30;;;-2.13;56.25;95544.31;6129437;23;20169;-82
2022/02/13 06:55:31;;;;;;;39.53;16.30;;;-1.10;71.30;;;-2.07;56.14;95540.53;6105000;23;20204;-81
2022/02/13 06:57:58;;;;;;;26.25;12.80;;;-1.00;71.30;;;-1.95;56.09;95555.97;6105020;23;20177;-83
2022/02/13 07:00:27;;;;;;;18.05;11.50;;;-1.00;71.30;;;-1.90;56.53;95549.72;6104975;23;20201;-82
2022/02/13 07:02:54;;;;;;;24.02;12.13;;;-0.90;71.40;;;-1.81;56.08;95559.41;6104956;23;20226;-83
2022/02/13 07:05:23;;;;;;;20.50;12.38;;;-0.90;71.40;;;-1.73;56.14;95556.34;6128824;23;20456;-82
2022/02/13 07:07:51;;;;;;;20.13;11.70;;;-0.80;71.40;;;-1.65;56.17;95554.09;6103923;23;20516;-82
2022/02/13 07:10:19;;;;;;;21.25;14.23;;;-0.70;71.60;;;-1.56;56.49;95548.34;6104343;23;20703;-81
2022/02/13 07:12:46;;;;;;;20.33;11.80;;;-0.70;71.50;;;-1.48;56.34;95558.13;6129201;23;20232;-82
2022/02/13 07:15:13;;;;;;;17.90;10.65;;;-0.60;71.50;;;-1.43;55.91;95543.19;6104991;23;20255;-81
2022/02/13 07:17:44;;;;;;;14.40;9.75;;;-0.50;71.60;;;-1.30;56.20;95561.22;6129702;23;20236;-83
2022/02/13 07:20:12;;;;;;;13.13;9.18;;;-0.40;71.70;;;-1.27;56.18;95549.91;6129446;23;20193;-81
2022/02/13 07:22:39;;;;;;;15.25;9.65;;;-0.30;71.70;;;-1.12;56.14;95556.59;6128138;23;20203;-82
2022/02/13 07:25:08;;;;;;;12.45;8.48;;;-0.30;71.70;;;-1.02;56.42;95559.38;6080384;23;20252;-82
2022/02/13 07:27:38;;;;;;;14.70;9.13;;;-0.20;71.80;;;-0.93;56.28;95563.06;6104709;23;20244;-82
2022/02/13 07:30:12;;;;;;;13.35;8.70;;;-0.10;71.80;;;-0.84;56.27;95555.53;6080719;23;20197;-80
2022/02/13 07:32:44;;;;;;;12.50;8.65;;;-0.10;71.80;;;-0.76;55.94;95560.13;6129265;23;20223;-81
2022/02/13 07:35:14;;;;;;;14.15;9.02;;;0.00;71.90;;;-0.66;56.06;95558.59;6128022;23;20541;-80
2022/02/13 07:37:42;;;;;;;11.43;8.00;;;0.10;71.90;;;-0.57;56.06;95558.88;6104108;23;20173;-80
2022/02/13 07:40:11;;;;;;;10.98;8.00;;;0.20;71.80;;;-0.51;56.02;95554.09;6128950;23;20197;-80
2022/02/13 07:42:42;;;;;;;16.08;8.35;;;0.30;71.80;;;-0.43;56.02;95552.75;6081945;23;20208;-81
2022/02/13 07:45:12;;;;;;;14.52;9.20;;;0.30;71.80;;;-0.36;56.10;95546.22;6104976;23;20720;-81
2022/02/13 07:47:39;;;;;;;12.30;8.48;;;0.40;71.80;;;-0.28;56.44;95554.25;6079625;23;20189;-81
2022/02/13 07:50:07;;;;;;;12.90;8.65;;;0.50;71.90;;;-0.20;56.12;95549.34;6127537;23;20220;-81
2022/02/13 07:52:36;;;;;;;12.45;8.43;;;0.50;71.80;;;-0.14;56.11;95547.28;6104687;23;20204;-81
2022/02/13 07:55:05;;;;;;;13.00;8.52;;;0.70;71.80;;;-0.05;56.16;95551.75;6107150;23;20190;-81
2022/02/13 07:57:32;;;;;;;12.00;8.43;;;0.70;71.80;;;0.01;56.22;95548.75;6130203;23;20236;-81
2022/02/13 07:59:59;;;;;;;13.52;8.20;;;0.80;72.80;;;0.08;56.17;95549.94;6105875;23;20616;-81
2022/02/13 08:02:26;;;;;;;13.73;8.35;;;0.80;71.80;;;0.15;56.12;95551.16;6130857;23;20228;-81
2022/02/13 08:04:54;;;;;;;14.57;8.55;;;0.90;71.90;;;0.21;55.98;95555.06;6105197;23;20193;-81
2022/02/13 08:07:21;;;;;;;27.95;14.52;;;0.90;71.70;;;0.25;56.18;95540.97;6106487;23;20189;-81
2022/02/13 08:09:48;;;;;;;46.63;30.17;;;1.00;71.80;;;0.31;56.05;95534.56;6106731;23;20272;-81
2022/02/13 08:12:15;;;;;;;34.55;22.63;;;1.10;71.80;;;0.44;56.00;95548.19;6105251;23;20186;-81
2022/02/13 08:14:42;;;;;;;22.25;16.15;;;1.20;72.20;;;0.52;56.16;95555.34;6106070;23;20193;-81
2022/02/13 08:17:09;;;;;;;20.95;13.45;;;1.20;71.80;;;0.57;56.18;95542.94;6130495;23;20170;-81
2022/02/13 08:19:38;;;;;;;14.43;11.10;;;1.30;71.80;;;0.64;55.97;95544.13;6130639;23;20216;-81
2022/02/13 08:22:07;;;;;;;14.70;10.27;;;1.30;71.80;;;0.74;56.01;95551.19;6130010;23;20585;-81
2022/02/13 08:24:34;;;;;;;15.43;9.70;;;1.40;71.80;;;0.84;55.88;95546.16;6104818;23;20276;-81
2022/02/13 08:27:02;;;;;;;13.57;9.70;;;1.50;71.90;;;0.89;55.88;95552.63;6130527;23;20173;-81
2022/02/13 08:29:29;;;;;;;17.55;9.60;;;1.50;71.80;;;0.92;56.04;95543.81;6106192;23;20280;-82
2022/02/13 08:31:57;;;;;;;13.32;9.73;;;1.60;71.90;;;1.00;56.14;95545.81;6082313;23;20184;-82
2022/02/13 08:34:25;;;;;;;16.30;10.48;;;1.70;71.90;;;1.09;56.03;95542.53;6105510;23;20500;-82
2022/02/13 08:36:52;;;;;;;13.38;9.25;;;1.80;71.90;;;1.15;56.02;95549.81;6104989;23;20212;-82
2022/02/13 08:39:20;;;;;;;12.30;8.07;;;1.80;71.90;;;1.22;55.94;95540.66;6129242;23;20191;-81
2022/02/13 08:41:47;;;;;;;16.88;10.07;;;1.90;72.00;;;1.31;56.19;95543.44;6130276;23;20236;-82
2022/02/13 08:44:15;;;;;;;14.23;10.18;;;2.00;72.00;;;1.37;55.88;95536.03;6129900;23;20198;-82
2022/02/13 08:46:43;;;;;;;12.45;9.02;;;2.00;71.90;;;1.38;55.92;95527.34;6130580;23;20208;-81
2022/02/13 08:49:10;;;;;;;11.20;8.35;;;2.20;72.00;;;1.48;55.96;95529.19;6129282;23;20185;-81
2022/02/13 08:51:37;;;;;;;13.30;8.98;;;2.10;71.90;;;1.57;55.83;95531.06;6105911;23;20185;-80
2022/02/13 08:54:04;;;;;;;14.93;8.15;;;2.20;71.90;;;1.63;55.94;95533.16;6105293;23;20181;-81
2022/02/13 08:56:31;;;;;;;11.23;8.40;;;2.20;72.00;;;1.66;55.88;95521.75;6105771;23;20185;-82
2022/02/13 08:58:59;;;;;;;11.27;8.13;;;2.30;72.00;;;1.73;55.73;95525.50;6108417;23;20553;-81
2022/02/13 09:01:27;;;;;;;57.38;23.77;;;2.40;72.00;;;1.85;55.65;95534.06;6105716;23;20228;-81
2022/02/13 09:03:54;;;;;;;159.77;69.25;;;2.40;72.10;;;1.94;56.15;95540.25;6104821;23;20177;-81
2022/02/13 09:06:21;;;;;;;48.67;26.98;;;2.50;72.00;;;2.00;56.11;95542.34;6105730;23;20210;-81
2022/02/13 09:08:48;;;;;;;29.98;17.83;;;2.60;72.10;;;2.09;56.19;95539.03;6105444;23;20224;-82
2022/02/13 09:11:16;;;;;;;37.47;20.92;;;2.60;71.90;;;2.16;55.96;95529.00;6129774;23;20181;-80
2022/02/13 09:13:43;;;;;;;36.47;20.73;;;2.70;71.90;;;2.23;55.39;95530.97;6129451;23;20216;-81
2022/02/13 09:16:11;;;;;;;27.17;17.27;;;2.80;72.00;;;2.32;55.74;95528.56;6105045;23;20567;-83
2022/02/13 09:18:38;;;;;;;44.47;25.13;;;2.80;71.90;;;2.34;55.89;95522.31;6130508;23;20412;-82
2022/02/13 09:21:06;;;;;;;24.35;14.23;;;2.90;72.00;;;2.47;55.75;95532.50;6105301;23;20285;-81
2022/02/13 09:23:33;;;;;;;23.70;14.65;;;3.00;72.00;;;2.53;55.89;95526.81;6104919;23;20640;-82
2022/02/13 09:26:00;;;;;;;17.67;11.20;;;3.00;71.90;;;2.64;55.60;95525.13;6129594;23;20663;-82
2022/02/13 09:28:27;;;;;;;13.18;9.63;;;3.10;72.00;;;2.71;55.53;95516.69;6105504;23;20174;-83
2022/02/13 09:30:54;;;;;;;20.38;12.35;;;3.20;71.90;;;2.80;55.50;95515.09;6129965;23;20570;-82
2022/02/13 09:33:23;;;;;;;29.58;15.88;;;3.30;71.90;;;2.85;55.44;95507.75;6105640;23;20181;-83
2022/02/13 09:35:51;;;;;;;22.85;12.80;;;3.30;72.00;;;3.00;55.70;95510.00;6081158;23;20201;-83
2022/02/13 09:38:19;;;;;;;20.33;12.55;;;3.40;72.10;;;3.09;55.60;95505.81;6129467;23;20601;-83
2022/02/13 09:40:47;;;;;;;28.52;17.42;;;3.50;72.10;;;3.20;55.41;95510.91;6104870;23;20205;-83
2022/02/13 09:43:16;;;;;;;17.45;12.10;;;3.50;72.10;;;3.30;55.89;95506.56;6104876;23;20201;-83
2022/02/13 09:45:45;;;;;;;16.67;11.20;;;3.60;72.10;;;3.41;56.03;95503.06;6105758;23;20280;-83
2022/02/13 09:48:17;;;;;;;16.08;10.55;;;3.70;72.10;;;3.47;55.51;95493.94;6105328;23;20576;-85
2022/02/13 09:50:45;;;;;;;15.18;9.60;;;3.80;72.20;;;3.60;55.27;95496.25;6105055;23;20193;-84
2022/02/13 09:53:17;;;;;;;12.00;8.43;;;3.90;72.20;;;3.75;55.80;95509.66;6129526;23;20247;-82
2022/02/13 09:55:45;;;;;;;10.63;8.32;;;4.00;72.30;;;3.84;55.51;95499.31;6105246;23;20193;-83
2022/02/13 09:58:12;;;;;;;10.32;7.85;;;4.10;72.20;;;3.96;55.73;95500.00;6104837;23;20628;-84
2022/02/13 10:00:58;;;;;;;12.48;8.70;;;4.20;72.10;;;4.04;55.53;95495.88;6128748;23;20516;-85
2022/02/13 10:03:44;;;;;;;15.68;10.10;;;4.30;72.20;;;4.12;55.16;95494.25;6105089;23;20197;-84
2022/02/13 10:06:11;;;;;;;163.63;70.95;;;4.40;71.90;;;4.23;55.38;95495.06;6105013;23;20205;-83
2022/02/13 10:08:44;;;;;;;55.30;33.25;;;4.50;72.10;;;4.32;55.35;95484.69;6130211;23;20212;-84
2022/02/13 10:11:25;;;;;;;30.23;18.63;;;4.60;72.10;;;4.43;54.98;95488.06;6104640;23;20245;-83
2022/02/13 10:14:15;;;;;;;20.33;13.88;;;4.70;72.20;;;4.49;55.12;95485.75;6106300;23;20191;-83
2022/02/13 10:16:46;;;;;;;16.95;10.55;;;4.80;72.20;;;4.58;55.10;95483.28;6081467;23;20200;-84